sensor_id;sensor_type;location;lat;lon;timestamp;P1;durP1;ratioP1;P2;durP2;ratioP2
9254;SDS011;4663;49.120;9.730;2023-04-03T00:01:08;13.33;;;12.57;;
9254;SDS011;4663;49.120;9.730;2023-04-03T00:03:33;15.50;;;14.63;;
9254;SDS011;4663;49.120;9.730;2023-04-03T00:05:59;13.63;;;12.83;;
9254;SDS011;4663;49.120;9.730;2023-04-03T00:08:25;14.03;;;13.13;;
9254;SDS011;4663;49.120;9.730;2023-04-03T00:10:50;14.37;;;13.47;;
9254;SDS011;4663;49.120;9.730;2023-04-03T00:13:16;16.57;;;15.67;;
9254;SDS011;4663;49.120;9.730;2023-04-03T00:15:42;14.90;;;14.17;;
9254;SDS011;4663;49.120;9.730;2023-04-03T00:18:07;16.13;;;15.30;;
9254;SDS011;4663;49.120;9.730;2023-04-03T00:20:33;16.37;;;15.47;;
9254;SDS011;4663;49.120;9.730;2023-04-03T00:22:59;15.00;;;14.10;;
9254;SDS011;4663;49.120;9.730;2023-04-03T00:25:25;15.93;;;15.00;;
9254;SDS011;4663;49.120;9.730;2023-04-03T00:27:51;15.13;;;14.37;;
9254;SDS011;4663;49.120;9.730;2023-04-03T00:30:17;15.10;;;14.23;;
9254;SDS011;4663;49.120;9.730;2023-04-03T00:32:43;16.30;;;15.47;;
9254;SDS011;4663;49.120;9.730;2023-04-03T00:35:09;18.23;;;17.37;;
9254;SDS011;4663;49.120;9.730;2023-04-03T00:37:35;18.30;;;17.33;;
9254;SDS011;4663;49.120;9.730;2023-04-03T00:40:01;18.73;;;17.73;;
9254;SDS011;4663;49.120;9.730;2023-04-03T00:42:27;17.77;;;16.63;;
9254;SDS011;4663;49.120;9.730;2023-04-03T00:47:17;19.90;;;18.80;;
9254;SDS011;4663;49.120;9.730;2023-04-03T00:49:43;18.47;;;17.50;;
9254;SDS011;4663;49.120;9.730;2023-04-03T00:52:11;19.67;;;18.67;;
9254;SDS011;4663;49.120;9.730;2023-04-03T00:54:41;18.67;;;17.63;;
9254;SDS011;4663;49.120;9.730;2023-04-03T00:57:08;18.93;;;17.83;;
9254;SDS011;4663;49.120;9.730;2023-04-03T00:59:37;18.40;;;17.47;;
9254;SDS011;4663;49.120;9.730;2023-04-03T01:02:06;18.37;;;17.43;;
9254;SDS011;4663;49.120;9.730;2023-04-03T01:04:37;19.00;;;18.03;;
9254;SDS011;4663;49.120;9.730;2023-04-03T01:07:05;18.23;;;17.33;;
9254;SDS011;4663;49.120;9.730;2023-04-03T01:09:33;18.17;;;17.23;;
9254;SDS011;4663;49.120;9.730;2023-04-03T01:15:04;18.90;;;17.80;;
9254;SDS011;4663;49.120;9.730;2023-04-03T01:17:39;18.53;;;17.50;;
9254;SDS011;4663;49.120;9.730;2023-04-03T01:20:26;17.53;;;16.67;;
9254;SDS011;4663;49.120;9.730;2023-04-03T01:22:59;15.10;;;14.23;;
9254;SDS011;4663;49.120;9.730;2023-04-03T01:25:36;14.47;;;13.63;;
9254;SDS011;4663;49.120;9.730;2023-04-03T01:28:21;13.43;;;12.73;;
9254;SDS011;4663;49.120;9.730;2023-04-03T01:33:28;13.97;;;13.20;;
9254;SDS011;4663;49.120;9.730;2023-04-03T01:35:54;15.37;;;14.53;;
9254;SDS011;4663;49.120;9.730;2023-04-03T01:38:20;15.37;;;14.47;;
9254;SDS011;4663;49.120;9.730;2023-04-03T01:40:45;15.70;;;14.73;;
9254;SDS011;4663;49.120;9.730;2023-04-03T01:43:11;16.10;;;15.27;;
9254;SDS011;4663;49.120;9.730;2023-04-03T01:45:36;15.83;;;14.73;;
9254;SDS011;4663;49.120;9.730;2023-04-03T01:48:01;16.20;;;15.30;;
9254;SDS011;4663;49.120;9.730;2023-04-03T01:50:27;17.33;;;16.33;;
9254;SDS011;4663;49.120;9.730;2023-04-03T01:52:52;16.43;;;15.53;;
9254;SDS011;4663;49.120;9.730;2023-04-03T01:55:18;16.53;;;15.73;;
9254;SDS011;4663;49.120;9.730;2023-04-03T01:57:43;14.10;;;13.33;;
9254;SDS011;4663;49.120;9.730;2023-04-03T02:00:09;13.97;;;13.27;;
9254;SDS011;4663;49.120;9.730;2023-04-03T02:02:35;14.83;;;14.10;;
9254;SDS011;4663;49.120;9.730;2023-04-03T02:05:00;15.87;;;14.97;;
9254;SDS011;4663;49.120;9.730;2023-04-03T02:07:25;16.20;;;15.27;;
9254;SDS011;4663;49.120;9.730;2023-04-03T02:09:51;16.63;;;15.63;;
9254;SDS011;4663;49.120;9.730;2023-04-03T02:12:16;17.13;;;16.23;;
9254;SDS011;4663;49.120;9.730;2023-04-03T02:14:42;16.47;;;15.57;;
9254;SDS011;4663;49.120;9.730;2023-04-03T02:17:07;15.97;;;15.10;;
9254;SDS011;4663;49.120;9.730;2023-04-03T02:19:36;15.87;;;14.80;;
9254;SDS011;4663;49.120;9.730;2023-04-03T02:22:05;14.93;;;14.17;;
9254;SDS011;4663;49.120;9.730;2023-04-03T02:24:30;16.93;;;16.03;;
9254;SDS011;4663;49.120;9.730;2023-04-03T02:26:57;15.40;;;14.60;;
9254;SDS011;4663;49.120;9.730;2023-04-03T02:29:22;16.10;;;15.30;;
9254;SDS011;4663;49.120;9.730;2023-04-03T02:31:48;16.27;;;15.37;;
9254;SDS011;4663;49.120;9.730;2023-04-03T02:34:14;15.67;;;14.80;;
9254;SDS011;4663;49.120;9.730;2023-04-03T02:36:39;15.23;;;14.33;;
9254;SDS011;4663;49.120;9.730;2023-04-03T02:39:05;14.73;;;13.90;;
9254;SDS011;4663;49.120;9.730;2023-04-03T02:41:30;15.90;;;14.90;;
9254;SDS011;4663;49.120;9.730;2023-04-03T02:44:03;15.43;;;14.53;;
9254;SDS011;4663;49.120;9.730;2023-04-03T02:46:31;14.87;;;14.10;;
9254;SDS011;4663;49.120;9.730;2023-04-03T02:48:57;15.33;;;14.50;;
9254;SDS011;4663;49.120;9.730;2023-04-03T02:51:22;16.27;;;15.40;;
9254;SDS011;4663;49.120;9.730;2023-04-03T02:53:48;16.37;;;15.53;;
9254;SDS011;4663;49.120;9.730;2023-04-03T02:56:14;15.27;;;14.43;;
9254;SDS011;4663;49.120;9.730;2023-04-03T02:58:40;14.07;;;13.30;;
9254;SDS011;4663;49.120;9.730;2023-04-03T03:01:05;14.10;;;13.37;;
9254;SDS011;4663;49.120;9.730;2023-04-03T03:03:31;13.37;;;12.63;;
9254;SDS011;4663;49.120;9.730;2023-04-03T03:06:06;13.40;;;12.63;;
9254;SDS011;4663;49.120;9.730;2023-04-03T03:08:36;13.13;;;12.43;;
9254;SDS011;4663;49.120;9.730;2023-04-03T03:11:02;12.27;;;11.57;;
9254;SDS011;4663;49.120;9.730;2023-04-03T03:13:28;13.37;;;12.63;;
9254;SDS011;4663;49.120;9.730;2023-04-03T03:15:54;13.07;;;12.40;;
9254;SDS011;4663;49.120;9.730;2023-04-03T03:18:20;12.20;;;11.50;;
9254;SDS011;4663;49.120;9.730;2023-04-03T03:20:46;12.10;;;11.40;;
9254;SDS011;4663;49.120;9.730;2023-04-03T03:23:12;12.33;;;11.47;;
9254;SDS011;4663;49.120;9.730;2023-04-03T03:25:38;12.83;;;12.13;;
9254;SDS011;4663;49.120;9.730;2023-04-03T03:28:04;11.57;;;10.97;;
9254;SDS011;4663;49.120;9.730;2023-04-03T03:30:30;12.07;;;11.40;;
9254;SDS011;4663;49.120;9.730;2023-04-03T03:32:55;12.03;;;11.43;;
9254;SDS011;4663;49.120;9.730;2023-04-03T03:35:21;12.50;;;11.60;;
9254;SDS011;4663;49.120;9.730;2023-04-03T03:37:46;12.47;;;11.87;;
9254;SDS011;4663;49.120;9.730;2023-04-03T03:40:11;11.57;;;10.97;;
9254;SDS011;4663;49.120;9.730;2023-04-03T03:42:38;11.93;;;11.33;;
9254;SDS011;4663;49.120;9.730;2023-04-03T03:45:03;12.50;;;11.80;;
9254;SDS011;4663;49.120;9.730;2023-04-03T03:47:29;11.80;;;11.10;;
9254;SDS011;4663;49.120;9.730;2023-04-03T03:49:54;12.03;;;11.33;;
9254;SDS011;4663;49.120;9.730;2023-04-03T03:52:20;12.07;;;11.47;;
9254;SDS011;4663;49.120;9.730;2023-04-03T03:54:45;12.27;;;11.67;;
9254;SDS011;4663;49.120;9.730;2023-04-03T03:57:11;14.20;;;13.30;;
9254;SDS011;4663;49.120;9.730;2023-04-03T03:59:36;15.83;;;14.93;;
9254;SDS011;4663;49.120;9.730;2023-04-03T04:02:01;18.33;;;17.33;;
9254;SDS011;4663;49.120;9.730;2023-04-03T04:04:27;21.83;;;20.70;;
9254;SDS011;4663;49.120;9.730;2023-04-03T04:06:52;24.20;;;23.00;;
9254;SDS011;4663;49.120;9.730;2023-04-03T04:09:17;24.33;;;23.07;;
9254;SDS011;4663;49.120;9.730;2023-04-03T04:11:43;19.93;;;18.83;;
9254;SDS011;4663;49.120;9.730;2023-04-03T04:14:08;22.60;;;21.47;;
9254;SDS011;4663;49.120;9.730;2023-04-03T04:16:35;19.13;;;18.13;;
9254;SDS011;4663;49.120;9.730;2023-04-03T04:19:00;16.53;;;15.70;;
9254;SDS011;4663;49.120;9.730;2023-04-03T04:21:26;16.87;;;15.90;;
9254;SDS011;4663;49.120;9.730;2023-04-03T04:23:51;16.17;;;15.27;;
9254;SDS011;4663;49.120;9.730;2023-04-03T04:26:17;15.40;;;14.60;;
9254;SDS011;4663;49.120;9.730;2023-04-03T04:28:42;17.90;;;17.00;;
9254;SDS011;4663;49.120;9.730;2023-04-03T04:31:07;19.13;;;18.13;;
9254;SDS011;4663;49.120;9.730;2023-04-03T04:33:33;18.80;;;17.83;;
9254;SDS011;4663;49.120;9.730;2023-04-03T04:35:58;19.70;;;18.70;;
9254;SDS011;4663;49.120;9.730;2023-04-03T04:38:24;22.43;;;21.23;;
9254;SDS011;4663;49.120;9.730;2023-04-03T04:40:49;28.50;;;26.97;;
9254;SDS011;4663;49.120;9.730;2023-04-03T04:43:15;29.47;;;27.77;;
9254;SDS011;4663;49.120;9.730;2023-04-03T04:45:41;34.97;;;33.20;;
9254;SDS011;4663;49.120;9.730;2023-04-03T04:48:07;35.73;;;33.93;;
9254;SDS011;4663;49.120;9.730;2023-04-03T04:50:32;34.73;;;33.00;;
9254;SDS011;4663;49.120;9.730;2023-04-03T04:52:58;37.17;;;35.30;;
9254;SDS011;4663;49.120;9.730;2023-04-03T04:55:23;36.57;;;34.77;;
9254;SDS011;4663;49.120;9.730;2023-04-03T04:57:49;35.23;;;33.30;;
9254;SDS011;4663;49.120;9.730;2023-04-03T05:00:14;38.43;;;36.37;;
9254;SDS011;4663;49.120;9.730;2023-04-03T05:02:40;36.23;;;34.33;;
9254;SDS011;4663;49.120;9.730;2023-04-03T05:05:06;38.60;;;36.40;;
9254;SDS011;4663;49.120;9.730;2023-04-03T05:07:31;36.20;;;34.33;;
9254;SDS011;4663;49.120;9.730;2023-04-03T05:09:57;36.93;;;35.03;;
9254;SDS011;4663;49.120;9.730;2023-04-03T05:12:22;40.23;;;38.03;;
9254;SDS011;4663;49.120;9.730;2023-04-03T05:14:48;37.17;;;35.30;;
9254;SDS011;4663;49.120;9.730;2023-04-03T05:17:13;37.43;;;35.47;;
9254;SDS011;4663;49.120;9.730;2023-04-03T05:19:38;38.90;;;36.93;;
9254;SDS011;4663;49.120;9.730;2023-04-03T05:22:04;36.73;;;34.87;;
9254;SDS011;4663;49.120;9.730;2023-04-03T05:24:29;34.67;;;32.90;;
9254;SDS011;4663;49.120;9.730;2023-04-03T05:26:55;35.47;;;33.60;;
9254;SDS011;4663;49.120;9.730;2023-04-03T05:29:20;31.67;;;30.07;;
9254;SDS011;4663;49.120;9.730;2023-04-03T05:31:46;29.53;;;27.93;;
9254;SDS011;4663;49.120;9.730;2023-04-03T05:34:13;28.13;;;26.57;;
9254;SDS011;4663;49.120;9.730;2023-04-03T05:36:38;26.77;;;25.40;;
9254;SDS011;4663;49.120;9.730;2023-04-03T05:39:04;25.00;;;23.70;;
9254;SDS011;4663;49.120;9.730;2023-04-03T05:41:29;20.33;;;19.20;;
9254;SDS011;4663;49.120;9.730;2023-04-03T05:43:55;16.37;;;15.47;;
9254;SDS011;4663;49.120;9.730;2023-04-03T05:46:20;15.07;;;14.27;;
9254;SDS011;4663;49.120;9.730;2023-04-03T05:48:46;14.10;;;13.20;;
9254;SDS011;4663;49.120;9.730;2023-04-03T05:51:18;13.27;;;12.47;;
9254;SDS011;4663;49.120;9.730;2023-04-03T05:53:47;14.10;;;13.07;;
9254;SDS011;4663;49.120;9.730;2023-04-03T05:56:13;16.23;;;15.20;;
9254;SDS011;4663;49.120;9.730;2023-04-03T05:58:39;13.80;;;13.00;;
9254;SDS011;4663;49.120;9.730;2023-04-03T06:01:04;13.90;;;13.00;;
9254;SDS011;4663;49.120;9.730;2023-04-03T06:03:30;14.57;;;13.67;;
9254;SDS011;4663;49.120;9.730;2023-04-03T06:05:56;14.23;;;13.23;;
9254;SDS011;4663;49.120;9.730;2023-04-03T06:08:21;13.87;;;12.97;;
9254;SDS011;4663;49.120;9.730;2023-04-03T06:10:48;18.47;;;17.47;;
9254;SDS011;4663;49.120;9.730;2023-04-03T06:13:15;12.93;;;12.13;;
9254;SDS011;4663;49.120;9.730;2023-04-03T06:15:40;14.63;;;13.83;;
9254;SDS011;4663;49.120;9.730;2023-04-03T06:18:06;17.17;;;16.27;;
9254;SDS011;4663;49.120;9.730;2023-04-03T06:20:31;16.47;;;15.57;;
9254;SDS011;4663;49.120;9.730;2023-04-03T06:22:57;13.57;;;12.77;;
9254;SDS011;4663;49.120;9.730;2023-04-03T06:25:22;14.87;;;13.93;;
9254;SDS011;4663;49.120;9.730;2023-04-03T06:27:48;14.53;;;13.63;;
9254;SDS011;4663;49.120;9.730;2023-04-03T06:30:13;15.00;;;14.00;;
9254;SDS011;4663;49.120;9.730;2023-04-03T06:33:33;15.00;;;14.00;;
9254;SDS011;4663;49.120;9.730;2023-04-03T06:36:03;15.27;;;14.30;;
9254;SDS011;4663;49.120;9.730;2023-04-03T06:38:29;14.23;;;13.43;;
9254;SDS011;4663;49.120;9.730;2023-04-03T06:40:55;13.93;;;13.10;;
9254;SDS011;4663;49.120;9.730;2023-04-03T06:43:23;16.03;;;15.17;;
9254;SDS011;4663;49.120;9.730;2023-04-03T06:45:49;15.97;;;14.97;;
9254;SDS011;4663;49.120;9.730;2023-04-03T06:48:14;16.67;;;15.67;;
9254;SDS011;4663;49.120;9.730;2023-04-03T06:50:40;14.60;;;13.60;;
9254;SDS011;4663;49.120;9.730;2023-04-03T06:53:06;14.13;;;13.23;;
9254;SDS011;4663;49.120;9.730;2023-04-03T06:55:32;15.87;;;14.90;;
9254;SDS011;4663;49.120;9.730;2023-04-03T06:57:57;18.17;;;17.13;;
9254;SDS011;4663;49.120;9.730;2023-04-03T07:00:23;20.97;;;19.63;;
9254;SDS011;4663;49.120;9.730;2023-04-03T07:02:49;20.73;;;19.53;;
9254;SDS011;4663;49.120;9.730;2023-04-03T07:05:16;24.63;;;23.27;;
9254;SDS011;4663;49.120;9.730;2023-04-03T07:07:42;26.63;;;25.00;;
9254;SDS011;4663;49.120;9.730;2023-04-03T07:10:08;28.67;;;27.10;;
9254;SDS011;4663;49.120;9.730;2023-04-03T07:12:33;25.17;;;23.87;;
9254;SDS011;4663;49.120;9.730;2023-04-03T07:14:59;21.30;;;20.07;;
9254;SDS011;4663;49.120;9.730;2023-04-03T07:17:24;20.57;;;19.13;;
9254;SDS011;4663;49.120;9.730;2023-04-03T07:19:50;18.73;;;17.60;;
9254;SDS011;4663;49.120;9.730;2023-04-03T07:22:16;20.00;;;18.67;;
9254;SDS011;4663;49.120;9.730;2023-04-03T07:24:42;19.50;;;18.00;;
9254;SDS011;4663;49.120;9.730;2023-04-03T07:27:07;18.27;;;16.97;;
9254;SDS011;4663;49.120;9.730;2023-04-03T07:29:33;16.47;;;15.10;;
9254;SDS011;4663;49.120;9.730;2023-04-03T07:31:59;18.43;;;17.13;;
9254;SDS011;4663;49.120;9.730;2023-04-03T07:34:24;19.43;;;17.83;;
9254;SDS011;4663;49.120;9.730;2023-04-03T07:36:50;21.53;;;20.23;;
9254;SDS011;4663;49.120;9.730;2023-04-03T07:39:15;19.90;;;18.57;;
9254;SDS011;4663;49.120;9.730;2023-04-03T07:41:41;20.03;;;18.83;;
9254;SDS011;4663;49.120;9.730;2023-04-03T07:44:06;19.97;;;18.63;;
9254;SDS011;4663;49.120;9.730;2023-04-03T07:46:34;17.17;;;16.17;;
9254;SDS011;4663;49.120;9.730;2023-04-03T07:49:00;17.47;;;16.33;;
9254;SDS011;4663;49.120;9.730;2023-04-03T07:51:25;20.40;;;19.17;;
9254;SDS011;4663;49.120;9.730;2023-04-03T07:53:51;21.97;;;20.77;;
9254;SDS011;4663;49.120;9.730;2023-04-03T07:56:17;23.50;;;22.17;;
9254;SDS011;4663;49.120;9.730;2023-04-03T07:58:42;19.83;;;18.43;;
9254;SDS011;4663;49.120;9.730;2023-04-03T08:01:08;18.23;;;17.20;;
9254;SDS011;4663;49.120;9.730;2023-04-03T08:03:33;19.53;;;18.30;;
9254;SDS011;4663;49.120;9.730;2023-04-03T08:06:03;18.87;;;17.73;;
9254;SDS011;4663;49.120;9.730;2023-04-03T08:08:30;20.80;;;19.57;;
9254;SDS011;4663;49.120;9.730;2023-04-03T08:10:57;25.90;;;24.53;;
9254;SDS011;4663;49.120;9.730;2023-04-03T08:13:23;27.53;;;26.13;;
9254;SDS011;4663;49.120;9.730;2023-04-03T08:15:49;26.40;;;24.97;;
9254;SDS011;4663;49.120;9.730;2023-04-03T08:18:15;26.23;;;24.90;;
9254;SDS011;4663;49.120;9.730;2023-04-03T08:20:41;24.43;;;23.00;;
9254;SDS011;4663;49.120;9.730;2023-04-03T08:23:07;24.97;;;23.43;;
9254;SDS011;4663;49.120;9.730;2023-04-03T08:25:34;24.80;;;23.43;;
9254;SDS011;4663;49.120;9.730;2023-04-03T08:28:03;19.53;;;18.33;;
9254;SDS011;4663;49.120;9.730;2023-04-03T08:30:29;20.17;;;18.83;;
9254;SDS011;4663;49.120;9.730;2023-04-03T08:32:54;20.57;;;19.23;;
9254;SDS011;4663;49.120;9.730;2023-04-03T08:35:20;21.37;;;20.13;;
9254;SDS011;4663;49.120;9.730;2023-04-03T08:37:45;22.90;;;21.50;;
9254;SDS011;4663;49.120;9.730;2023-04-03T08:40:15;21.27;;;20.13;;
9254;SDS011;4663;49.120;9.730;2023-04-03T08:45:51;23.83;;;22.30;;
9254;SDS011;4663;49.120;9.730;2023-04-03T08:48:21;24.23;;;23.00;;
9254;SDS011;4663;49.120;9.730;2023-04-03T08:50:53;23.13;;;21.83;;
9254;SDS011;4663;49.120;9.730;2023-04-03T08:53:23;22.00;;;20.63;;
9254;SDS011;4663;49.120;9.730;2023-04-03T08:55:53;18.43;;;17.10;;
9254;SDS011;4663;49.120;9.730;2023-04-03T08:58:27;17.97;;;16.90;;
9254;SDS011;4663;49.120;9.730;2023-04-03T09:03:42;13.87;;;12.93;;
9254;SDS011;4663;49.120;9.730;2023-04-03T09:17:04;14.47;;;13.67;;
9254;SDS011;4663;49.120;9.730;2023-04-03T09:22:22;13.20;;;12.40;;
9254;SDS011;4663;49.120;9.730;2023-04-03T09:24:57;14.50;;;13.60;;
9254;SDS011;4663;49.120;9.730;2023-04-03T09:27:32;14.17;;;13.30;;
9254;SDS011;4663;49.120;9.730;2023-04-03T09:29:58;15.20;;;14.00;;
9254;SDS011;4663;49.120;9.730;2023-04-03T09:32:33;14.47;;;13.60;;
9254;SDS011;4663;49.120;9.730;2023-04-03T09:35:04;15.73;;;14.73;;
9254;SDS011;4663;49.120;9.730;2023-04-03T09:37:42;18.27;;;17.10;;
9254;SDS011;4663;49.120;9.730;2023-04-03T09:40:28;19.07;;;18.00;;
9254;SDS011;4663;49.120;9.730;2023-04-03T09:43:01;19.00;;;17.87;;
9254;SDS011;4663;49.120;9.730;2023-04-03T09:45:44;20.50;;;19.40;;
9254;SDS011;4663;49.120;9.730;2023-04-03T09:51:01;29.53;;;28.00;;
9254;SDS011;4663;49.120;9.730;2023-04-03T09:55:58;21.57;;;20.37;;
9254;SDS011;4663;49.120;9.730;2023-04-03T09:58:26;20.77;;;19.57;;
9254;SDS011;4663;49.120;9.730;2023-04-03T10:00:55;23.70;;;22.47;;
9254;SDS011;4663;49.120;9.730;2023-04-03T10:03:27;25.77;;;24.17;;
9254;SDS011;4663;49.120;9.730;2023-04-03T10:05:55;17.37;;;16.23;;
9254;SDS011;4663;49.120;9.730;2023-04-03T10:11:11;20.83;;;19.60;;
9254;SDS011;4663;49.120;9.730;2023-04-03T10:13:57;20.43;;;18.93;;
9254;SDS011;4663;49.120;9.730;2023-04-03T10:16:47;29.70;;;28.20;;
9254;SDS011;4663;49.120;9.730;2023-04-03T10:22:22;23.70;;;22.47;;
9254;SDS011;4663;49.120;9.730;2023-04-03T10:35:37;16.07;;;15.13;;
9254;SDS011;4663;49.120;9.730;2023-04-03T10:40:54;15.23;;;14.33;;
9254;SDS011;4663;49.120;9.730;2023-04-03T10:44:12;18.63;;;17.53;;
9254;SDS011;4663;49.120;9.730;2023-04-03T10:46:27;24.53;;;23.00;;
9254;SDS011;4663;49.120;9.730;2023-04-03T10:51:48;17.30;;;16.30;;
9254;SDS011;4663;49.120;9.730;2023-04-03T10:54:25;19.47;;;18.40;;
9254;SDS011;4663;49.120;9.730;2023-04-03T10:56:56;22.67;;;21.47;;
9254;SDS011;4663;49.120;9.730;2023-04-03T10:59:32;24.83;;;23.60;;
9254;SDS011;4663;49.120;9.730;2023-04-03T11:05:02;39.73;;;37.70;;
9254;SDS011;4663;49.120;9.730;2023-04-03T11:07:38;44.63;;;42.47;;
9254;SDS011;4663;49.120;9.730;2023-04-03T11:10:18;32.13;;;30.43;;
9254;SDS011;4663;49.120;9.730;2023-04-03T11:12:52;19.87;;;18.70;;
9254;SDS011;4663;49.120;9.730;2023-04-03T11:15:22;16.60;;;15.73;;
9254;SDS011;4663;49.120;9.730;2023-04-03T11:20:53;18.97;;;17.93;;
9254;SDS011;4663;49.120;9.730;2023-04-03T11:23:26;22.60;;;21.47;;
9254;SDS011;4663;49.120;9.730;2023-04-03T11:25:58;25.53;;;24.30;;
9254;SDS011;4663;49.120;9.730;2023-04-03T11:28:37;35.80;;;34.10;;
9254;SDS011;4663;49.120;9.730;2023-04-03T11:36:57;44.00;;;41.87;;
9254;SDS011;4663;49.120;9.730;2023-04-03T11:39:26;34.73;;;33.00;;
9254;SDS011;4663;49.120;9.730;2023-04-03T11:41:55;25.43;;;24.17;;
9254;SDS011;4663;49.120;9.730;2023-04-03T11:50:45;32.57;;;30.93;;
9254;SDS011;4663;49.120;9.730;2023-04-03T11:55:44;34.10;;;32.43;;
9254;SDS011;4663;49.120;9.730;2023-04-03T12:13:39;47.00;;;44.70;;
9254;SDS011;4663;49.120;9.730;2023-04-03T12:29:27;20.03;;;18.73;;
9254;SDS011;4663;49.120;9.730;2023-04-03T12:48:11;26.13;;;24.70;;
9254;SDS011;4663;49.120;9.730;2023-04-03T12:50:40;22.83;;;21.47;;
9254;SDS011;4663;49.120;9.730;2023-04-03T12:53:14;24.87;;;23.43;;
9254;SDS011;4663;49.120;9.730;2023-04-03T12:55:44;26.37;;;24.90;;
9254;SDS011;4663;49.120;9.730;2023-04-03T12:58:14;24.67;;;23.43;;
9254;SDS011;4663;49.120;9.730;2023-04-03T13:00:42;20.20;;;19.20;;
9254;SDS011;4663;49.120;9.730;2023-04-03T13:03:19;22.47;;;21.33;;
9254;SDS011;4663;49.120;9.730;2023-04-03T13:05:49;26.00;;;24.77;;
9254;SDS011;4663;49.120;9.730;2023-04-03T13:08:15;25.00;;;23.73;;
9254;SDS011;4663;49.120;9.730;2023-04-03T13:13:27;32.27;;;30.63;;
9254;SDS011;4663;49.120;9.730;2023-04-03T13:15:53;28.63;;;27.27;;
9254;SDS011;4663;49.120;9.730;2023-04-03T13:18:35;27.93;;;26.53;;
9254;SDS011;4663;49.120;9.730;2023-04-03T13:21:11;24.77;;;23.53;;
9254;SDS011;4663;49.120;9.730;2023-04-03T13:23:42;17.00;;;15.93;;
9254;SDS011;4663;49.120;9.730;2023-04-03T13:26:11;15.10;;;14.30;;
9254;SDS011;4663;49.120;9.730;2023-04-03T13:28:41;20.20;;;19.10;;
9254;SDS011;4663;49.120;9.730;2023-04-03T13:33:39;33.70;;;32.07;;
9254;SDS011;4663;49.120;9.730;2023-04-03T13:36:24;39.63;;;37.63;;
9254;SDS011;4663;49.120;9.730;2023-04-03T13:39:37;34.93;;;33.20;;
9254;SDS011;4663;49.120;9.730;2023-04-03T13:41:44;34.70;;;33.07;;
9254;SDS011;4663;49.120;9.730;2023-04-03T13:45:05;32.50;;;30.90;;
9254;SDS011;4663;49.120;9.730;2023-04-03T13:49:37;28.70;;;27.20;;
9254;SDS011;4663;49.120;9.730;2023-04-03T13:54:55;25.70;;;24.47;;
9254;SDS011;4663;49.120;9.730;2023-04-03T13:57:24;23.00;;;21.90;;
9254;SDS011;4663;49.120;9.730;2023-04-03T13:59:50;16.97;;;16.07;;
9254;SDS011;4663;49.120;9.730;2023-04-03T14:05:04;19.03;;;17.93;;
9254;SDS011;4663;49.120;9.730;2023-04-03T14:07:33;19.17;;;18.17;;
9254;SDS011;4663;49.120;9.730;2023-04-03T14:09:59;22.63;;;21.50;;
9254;SDS011;4663;49.120;9.730;2023-04-03T14:12:34;28.50;;;27.03;;
9254;SDS011;4663;49.120;9.730;2023-04-03T14:15:10;33.00;;;31.27;;
9254;SDS011;4663;49.120;9.730;2023-04-03T14:17:42;35.23;;;33.50;;
9254;SDS011;4663;49.120;9.730;2023-04-03T14:20:15;31.13;;;29.63;;
9254;SDS011;4663;49.120;9.730;2023-04-03T14:22:42;24.90;;;23.63;;
9254;SDS011;4663;49.120;9.730;2023-04-03T14:25:08;21.93;;;20.80;;
9254;SDS011;4663;49.120;9.730;2023-04-03T14:27:36;25.00;;;23.73;;
9254;SDS011;4663;49.120;9.730;2023-04-03T14:30:04;28.20;;;26.73;;
9254;SDS011;4663;49.120;9.730;2023-04-03T14:32:34;33.07;;;31.43;;
9254;SDS011;4663;49.120;9.730;2023-04-03T14:35:00;34.67;;;32.93;;
9254;SDS011;4663;49.120;9.730;2023-04-03T14:37:27;37.13;;;35.27;;
9254;SDS011;4663;49.120;9.730;2023-04-03T14:39:54;35.23;;;33.40;;
9254;SDS011;4663;49.120;9.730;2023-04-03T14:42:22;33.60;;;31.97;;
9254;SDS011;4663;49.120;9.730;2023-04-03T14:44:50;33.20;;;31.53;;
9254;SDS011;4663;49.120;9.730;2023-04-03T14:47:17;30.40;;;28.87;;
9254;SDS011;4663;49.120;9.730;2023-04-03T14:49:46;33.07;;;31.43;;
9254;SDS011;4663;49.120;9.730;2023-04-03T14:52:19;31.20;;;29.63;;
9254;SDS011;4663;49.120;9.730;2023-04-03T14:54:47;31.40;;;29.83;;
9254;SDS011;4663;49.120;9.730;2023-04-03T14:57:14;33.70;;;32.07;;
9254;SDS011;4663;49.120;9.730;2023-04-03T14:59:40;28.60;;;27.13;;
9254;SDS011;4663;49.120;9.730;2023-04-03T15:04:53;26.53;;;25.20;;
9254;SDS011;4663;49.120;9.730;2023-04-03T15:07:20;28.67;;;27.13;;
9254;SDS011;4663;49.120;9.730;2023-04-03T15:09:46;28.90;;;27.43;;
9254;SDS011;4663;49.120;9.730;2023-04-03T15:12:11;35.73;;;33.73;;
9254;SDS011;4663;49.120;9.730;2023-04-03T15:14:37;37.37;;;35.43;;
9254;SDS011;4663;49.120;9.730;2023-04-03T15:17:05;40.30;;;38.17;;
9254;SDS011;4663;49.120;9.730;2023-04-03T15:19:36;38.63;;;36.77;;
9254;SDS011;4663;49.120;9.730;2023-04-03T15:22:03;36.27;;;34.53;;
9254;SDS011;4663;49.120;9.730;2023-04-03T15:24:28;34.93;;;33.03;;
9254;SDS011;4663;49.120;9.730;2023-04-03T15:26:54;29.07;;;27.63;;
9254;SDS011;4663;49.120;9.730;2023-04-03T15:29:19;31.57;;;30.03;;
9254;SDS011;4663;49.120;9.730;2023-04-03T15:31:45;33.07;;;31.37;;
9254;SDS011;4663;49.120;9.730;2023-04-03T15:34:10;35.17;;;33.33;;
9254;SDS011;4663;49.120;9.730;2023-04-03T15:36:36;34.67;;;32.87;;
9254;SDS011;4663;49.120;9.730;2023-04-03T15:39:01;37.13;;;34.93;;
9254;SDS011;4663;49.120;9.730;2023-04-03T15:41:26;36.50;;;34.70;;
9254;SDS011;4663;49.120;9.730;2023-04-03T15:43:52;40.83;;;38.80;;
9254;SDS011;4663;49.120;9.730;2023-04-03T15:46:17;36.47;;;34.63;;
9254;SDS011;4663;49.120;9.730;2023-04-03T15:48:42;32.33;;;30.60;;
9254;SDS011;4663;49.120;9.730;2023-04-03T15:51:09;29.57;;;28.13;;
9254;SDS011;4663;49.120;9.730;2023-04-03T15:53:35;30.23;;;28.63;;
9254;SDS011;4663;49.120;9.730;2023-04-03T15:56:00;31.80;;;30.23;;
9254;SDS011;4663;49.120;9.730;2023-04-03T15:58:25;35.57;;;33.83;;
9254;SDS011;4663;49.120;9.730;2023-04-03T16:00:51;37.40;;;35.50;;
9254;SDS011;4663;49.120;9.730;2023-04-03T16:03:17;41.20;;;39.13;;
9254;SDS011;4663;49.120;9.730;2023-04-03T16:05:44;41.27;;;39.17;;
9254;SDS011;4663;49.120;9.730;2023-04-03T16:08:10;44.30;;;42.10;;
9254;SDS011;4663;49.120;9.730;2023-04-03T16:10:37;39.17;;;37.17;;
9254;SDS011;4663;49.120;9.730;2023-04-03T16:13:03;38.93;;;36.87;;
9254;SDS011;4663;49.120;9.730;2023-04-03T16:15:29;38.77;;;36.77;;
9254;SDS011;4663;49.120;9.730;2023-04-03T16:17:56;37.50;;;35.67;;
9254;SDS011;4663;49.120;9.730;2023-04-03T16:20:23;30.50;;;29.00;;
9254;SDS011;4663;49.120;9.730;2023-04-03T16:22:49;29.00;;;27.40;;
9254;SDS011;4663;49.120;9.730;2023-04-03T16:25:15;28.70;;;27.13;;
9254;SDS011;4663;49.120;9.730;2023-04-03T16:27:40;24.60;;;23.10;;
9254;SDS011;4663;49.120;9.730;2023-04-03T16:30:06;22.23;;;20.97;;
9254;SDS011;4663;49.120;9.730;2023-04-03T16:32:33;24.73;;;23.43;;
9254;SDS011;4663;49.120;9.730;2023-04-03T16:34:59;25.03;;;23.73;;
9254;SDS011;4663;49.120;9.730;2023-04-03T16:37:25;26.03;;;24.73;;
9254;SDS011;4663;49.120;9.730;2023-04-03T16:39:51;30.63;;;29.03;;
9254;SDS011;4663;49.120;9.730;2023-04-03T16:42:16;30.67;;;29.13;;
9254;SDS011;4663;49.120;9.730;2023-04-03T16:44:42;32.20;;;30.40;;
9254;SDS011;4663;49.120;9.730;2023-04-03T16:47:07;33.53;;;31.83;;
9254;SDS011;4663;49.120;9.730;2023-04-03T16:49:33;34.20;;;32.53;;
9254;SDS011;4663;49.120;9.730;2023-04-03T16:52:00;39.07;;;36.97;;
9254;SDS011;4663;49.120;9.730;2023-04-03T16:54:26;34.60;;;32.90;;
9254;SDS011;4663;49.120;9.730;2023-04-03T16:56:52;30.27;;;28.77;;
9254;SDS011;4663;49.120;9.730;2023-04-03T16:59:17;25.77;;;24.47;;
9254;SDS011;4663;49.120;9.730;2023-04-03T17:01:43;18.57;;;17.60;;
9254;SDS011;4663;49.120;9.730;2023-04-03T17:04:08;17.23;;;16.33;;
9254;SDS011;4663;49.120;9.730;2023-04-03T17:06:34;18.60;;;17.30;;
9254;SDS011;4663;49.120;9.730;2023-04-03T17:09:00;19.03;;;18.10;;